sensor_id;sensor_type;location;lat;lon;timestamp;temperature;humidity
40852;DHT22;26574;52.486;13.348;2022-09-28T00:02:14;22.30;69.60
40852;DHT22;26574;52.486;13.348;2022-09-28T00:04:40;22.40;69.50
40852;DHT22;26574;52.486;13.348;2022-09-28T00:07:05;22.30;69.70
40852;DHT22;26574;52.486;13.348;2022-09-28T00:09:31;22.40;69.60
40852;DHT22;26574;52.486;13.348;2022-09-28T00:11:57;22.30;69.50
40852;DHT22;26574;52.486;13.348;2022-09-28T00:14:22;22.30;69.40
40852;DHT22;26574;52.486;13.348;2022-09-28T00:16:48;22.30;69.40
40852;DHT22;26574;52.486;13.348;2022-09-28T00:19:14;22.30;69.40
40852;DHT22;26574;52.486;13.348;2022-09-28T00:21:40;22.30;69.30
40852;DHT22;26574;52.486;13.348;2022-09-28T00:24:08;22.30;69.40
40852;DHT22;26574;52.486;13.348;2022-09-28T00:26:40;22.30;69.40
40852;DHT22;26574;52.486;13.348;2022-09-28T00:29:06;22.30;69.30
40852;DHT22;26574;52.486;13.348;2022-09-28T00:31:32;22.30;69.20
40852;DHT22;26574;52.486;13.348;2022-09-28T00:34:00;22.30;69.40
40852;DHT22;26574;52.486;13.348;2022-09-28T00:36:26;22.30;69.40
40852;DHT22;26574;52.486;13.348;2022-09-28T00:38:57;22.30;69.30
40852;DHT22;26574;52.486;13.348;2022-09-28T00:41:24;22.30;69.40
40852;DHT22;26574;52.486;13.348;2022-09-28T00:43:51;22.30;69.20
40852;DHT22;26574;52.486;13.348;2022-09-28T00:46:26;22.30;69.20
40852;DHT22;26574;52.486;13.348;2022-09-28T00:48:57;22.40;69.30
40852;DHT22;26574;52.486;13.348;2022-09-28T00:51:29;22.30;69.20
40852;DHT22;26574;52.486;13.348;2022-09-28T00:53:59;22.30;69.10
40852;DHT22;26574;52.486;13.348;2022-09-28T00:56:27;22.40;69.20
40852;DHT22;26574;52.486;13.348;2022-09-28T00:58:53;22.30;69.20
40852;DHT22;26574;52.486;13.348;2022-09-28T01:01:23;22.40;69.20
40852;DHT22;26574;52.486;13.348;2022-09-28T01:03:49;22.30;69.00
40852;DHT22;26574;52.486;13.348;2022-09-28T01:06:18;22.30;69.00
40852;DHT22;26574;52.486;13.348;2022-09-28T01:08:45;22.30;69.10
40852;DHT22;26574;52.486;13.348;2022-09-28T01:11:15;22.30;69.10
40852;DHT22;26574;52.486;13.348;2022-09-28T01:13:41;22.30;69.00
40852;DHT22;26574;52.486;13.348;2022-09-28T01:21:19;22.30;68.90
40852;DHT22;26574;52.486;13.348;2022-09-28T01:26:32;22.30;68.80
40852;DHT22;26574;52.486;13.348;2022-09-28T01:29:03;22.30;68.80
40852;DHT22;26574;52.486;13.348;2022-09-28T01:31:32;22.30;68.90
40852;DHT22;26574;52.486;13.348;2022-09-28T01:34:04;22.30;68.80
40852;DHT22;26574;52.486;13.348;2022-09-28T01:36:36;22.30;69.00
40852;DHT22;26574;52.486;13.348;2022-09-28T01:39:07;22.30;68.80
40852;DHT22;26574;52.486;13.348;2022-09-28T01:41:34;22.30;68.90
40852;DHT22;26574;52.486;13.348;2022-09-28T01:44:02;22.30;68.60
40852;DHT22;26574;52.486;13.348;2022-09-28T01:46:36;22.30;68.80
40852;DHT22;26574;52.486;13.348;2022-09-28T01:49:04;22.30;68.80
40852;DHT22;26574;52.486;13.348;2022-09-28T01:51:42;22.30;68.80
40852;DHT22;26574;52.486;13.348;2022-09-28T01:54:12;22.30;68.80
40852;DHT22;26574;52.486;13.348;2022-09-28T01:56:42;22.40;68.70
40852;DHT22;26574;52.486;13.348;2022-09-28T01:59:16;22.30;68.70
40852;DHT22;26574;52.486;13.348;2022-09-28T02:01:48;22.30;68.80
40852;DHT22;26574;52.486;13.348;2022-09-28T02:04:17;22.30;68.70
40852;DHT22;26574;52.486;13.348;2022-09-28T02:06:55;22.30;68.70
40852;DHT22;26574;52.486;13.348;2022-09-28T02:09:23;22.40;68.80
40852;DHT22;26574;52.486;13.348;2022-09-28T02:11:51;22.30;68.60
40852;DHT22;26574;52.486;13.348;2022-09-28T02:14:19;22.30;68.70
40852;DHT22;26574;52.486;13.348;2022-09-28T02:16:48;22.30;68.70
40852;DHT22;26574;52.486;13.348;2022-09-28T02:19:23;22.30;68.60
40852;DHT22;26574;52.486;13.348;2022-09-28T02:22:07;22.30;69.20
40852;DHT22;26574;52.486;13.348;2022-09-28T02:24:40;22.30;68.60
40852;DHT22;26574;52.486;13.348;2022-09-28T02:27:14;22.30;68.60
40852;DHT22;26574;52.486;13.348;2022-09-28T02:29:41;22.30;68.50
40852;DHT22;26574;52.486;13.348;2022-09-28T02:32:07;22.30;68.40
40852;DHT22;26574;52.486;13.348;2022-09-28T02:34:34;22.30;68.50
40852;DHT22;26574;52.486;13.348;2022-09-28T02:37:00;22.30;68.50
40852;DHT22;26574;52.486;13.348;2022-09-28T02:39:26;22.30;68.50
40852;DHT22;26574;52.486;13.348;2022-09-28T02:42:00;22.30;68.40
40852;DHT22;26574;52.486;13.348;2022-09-28T02:58:12;22.30;68.40
40852;DHT22;26574;52.486;13.348;2022-09-28T03:00:43;22.30;68.40
40852;DHT22;26574;52.486;13.348;2022-09-28T03:08:38;22.30;68.30
40852;DHT22;26574;52.486;13.348;2022-09-28T03:11:08;22.30;68.40
40852;DHT22;26574;52.486;13.348;2022-09-28T03:13:37;22.30;68.20
40852;DHT22;26574;52.486;13.348;2022-09-28T03:16:13;22.30;68.20
40852;DHT22;26574;52.486;13.348;2022-09-28T03:18:40;22.30;68.10
40852;DHT22;26574;52.486;13.348;2022-09-28T03:21:06;22.30;68.20
40852;DHT22;26574;52.486;13.348;2022-09-28T03:23:33;22.30;68.10
40852;DHT22;26574;52.486;13.348;2022-09-28T03:26:00;22.30;68.10
40852;DHT22;26574;52.486;13.348;2022-09-28T03:28:26;22.30;68.10
40852;DHT22;26574;52.486;13.348;2022-09-28T03:30:52;22.40;68.20
40852;DHT22;26574;52.486;13.348;2022-09-28T03:33:18;22.30;68.20
40852;DHT22;26574;52.486;13.348;2022-09-28T03:35:48;22.30;68.10
40852;DHT22;26574;52.486;13.348;2022-09-28T03:38:15;22.30;68.10
40852;DHT22;26574;52.486;13.348;2022-09-28T03:40:42;22.30;68.00
40852;DHT22;26574;52.486;13.348;2022-09-28T03:43:08;22.30;68.00
40852;DHT22;26574;52.486;13.348;2022-09-28T03:45:34;22.30;68.10
40852;DHT22;26574;52.486;13.348;2022-09-28T03:47:59;22.30;68.10
40852;DHT22;26574;52.486;13.348;2022-09-28T03:50:25;22.30;68.00
40852;DHT22;26574;52.486;13.348;2022-09-28T03:52:51;22.30;68.00
40852;DHT22;26574;52.486;13.348;2022-09-28T03:55:16;22.30;67.90
40852;DHT22;26574;52.486;13.348;2022-09-28T03:57:42;22.30;67.90
40852;DHT22;26574;52.486;13.348;2022-09-28T04:00:08;22.40;68.00
40852;DHT22;26574;52.486;13.348;2022-09-28T04:02:40;22.30;67.90
40852;DHT22;26574;52.486;13.348;2022-09-28T04:05:06;22.40;68.10
40852;DHT22;26574;52.486;13.348;2022-09-28T04:07:33;22.40;68.00
40852;DHT22;26574;52.486;13.348;2022-09-28T04:09:59;22.40;67.60
40852;DHT22;26574;52.486;13.348;2022-09-28T04:12:25;22.30;67.90
40852;DHT22;26574;52.486;13.348;2022-09-28T04:14:50;22.30;67.90
40852;DHT22;26574;52.486;13.348;2022-09-28T04:17:17;22.30;67.80
40852;DHT22;26574;52.486;13.348;2022-09-28T04:19:42;22.30;67.90
40852;DHT22;26574;52.486;13.348;2022-09-28T04:22:37;22.30;67.90
40852;DHT22;26574;52.486;13.348;2022-09-28T04:25:04;22.30;67.90
40852;DHT22;26574;52.486;13.348;2022-09-28T04:27:30;22.30;67.80
40852;DHT22;26574;52.486;13.348;2022-09-28T04:30:14;22.30;67.80
40852;DHT22;26574;52.486;13.348;2022-09-28T04:32:44;22.40;67.90
40852;DHT22;26574;52.486;13.348;2022-09-28T04:35:10;22.30;67.80
40852;DHT22;26574;52.486;13.348;2022-09-28T04:37:36;22.30;67.70
40852;DHT22;26574;52.486;13.348;2022-09-28T04:40:02;22.30;67.70
40852;DHT22;26574;52.486;13.348;2022-09-28T04:42:29;22.30;67.80
40852;DHT22;26574;52.486;13.348;2022-09-28T04:44:55;22.30;67.60
40852;DHT22;26574;52.486;13.348;2022-09-28T04:47:22;22.30;67.70
40852;DHT22;26574;52.486;13.348;2022-09-28T04:50:06;22.30;67.70
40852;DHT22;26574;52.486;13.348;2022-09-28T04:52:35;22.40;67.70
40852;DHT22;26574;52.486;13.348;2022-09-28T04:55:01;22.30;67.60
40852;DHT22;26574;52.486;13.348;2022-09-28T04:57:26;22.40;67.60
40852;DHT22;26574;52.486;13.348;2022-09-28T04:59:53;22.30;67.50
40852;DHT22;26574;52.486;13.348;2022-09-28T05:02:19;22.30;67.60
40852;DHT22;26574;52.486;13.348;2022-09-28T05:04:50;22.40;67.50
40852;DHT22;26574;52.486;13.348;2022-09-28T05:07:48;22.40;67.30
40852;DHT22;26574;52.486;13.348;2022-09-28T05:10:13;22.40;67.10
40852;DHT22;26574;52.486;13.348;2022-09-28T05:12:39;22.40;67.40
40852;DHT22;26574;52.486;13.348;2022-09-28T05:15:05;22.30;67.30
40852;DHT22;26574;52.486;13.348;2022-09-28T05:17:31;22.40;67.40
40852;DHT22;26574;52.486;13.348;2022-09-28T05:20:18;22.40;67.40
40852;DHT22;26574;52.486;13.348;2022-09-28T05:22:44;22.40;67.10
40852;DHT22;26574;52.486;13.348;2022-09-28T05:25:10;22.40;67.30
40852;DHT22;26574;52.486;13.348;2022-09-28T05:27:58;22.40;67.30
40852;DHT22;26574;52.486;13.348;2022-09-28T05:30:45;22.40;67.50
40852;DHT22;26574;52.486;13.348;2022-09-28T05:33:36;22.40;67.30
40852;DHT22;26574;52.486;13.348;2022-09-28T05:36:09;22.40;67.30
40852;DHT22;26574;52.486;13.348;2022-09-28T05:38:35;22.40;67.30
40852;DHT22;26574;52.486;13.348;2022-09-28T05:41:01;22.40;67.20
40852;DHT22;26574;52.486;13.348;2022-09-28T05:43:27;22.40;67.10
40852;DHT22;26574;52.486;13.348;2022-09-28T05:45:52;22.40;66.40
40852;DHT22;26574;52.486;13.348;2022-09-28T05:48:18;22.40;66.00
40852;DHT22;26574;52.486;13.348;2022-09-28T05:50:48;22.40;66.80
40852;DHT22;26574;52.486;13.348;2022-09-28T05:53:15;22.40;67.00
40852;DHT22;26574;52.486;13.348;2022-09-28T05:55:40;22.40;66.90
40852;DHT22;26574;52.486;13.348;2022-09-28T05:58:06;22.40;67.00
40852;DHT22;26574;52.486;13.348;2022-09-28T06:00:33;22.50;66.90
40852;DHT22;26574;52.486;13.348;2022-09-28T06:03:01;22.40;66.80
40852;DHT22;26574;52.486;13.348;2022-09-28T06:05:27;22.40;67.00
40852;DHT22;26574;52.486;13.348;2022-09-28T06:07:59;22.50;66.90
40852;DHT22;26574;52.486;13.348;2022-09-28T06:10:25;22.50;66.80
40852;DHT22;26574;52.486;13.348;2022-09-28T06:12:56;22.50;66.60
40852;DHT22;26574;52.486;13.348;2022-09-28T06:15:22;22.50;66.40
40852;DHT22;26574;52.486;13.348;2022-09-28T06:17:54;22.50;66.30
40852;DHT22;26574;52.486;13.348;2022-09-28T06:20:42;22.50;66.30
40852;DHT22;26574;52.486;13.348;2022-09-28T06:23:15;22.60;66.40
40852;DHT22;26574;52.486;13.348;2022-09-28T06:25:41;22.60;66.20
40852;DHT22;26574;52.486;13.348;2022-09-28T06:28:11;22.60;66.30
40852;DHT22;26574;52.486;13.348;2022-09-28T06:30:38;22.60;66.10
40852;DHT22;26574;52.486;13.348;2022-09-28T06:33:08;22.60;66.00
40852;DHT22;26574;52.486;13.348;2022-09-28T06:35:35;22.60;66.20
40852;DHT22;26574;52.486;13.348;2022-09-28T06:38:03;22.60;66.00
40852;DHT22;26574;52.486;13.348;2022-09-28T06:40:29;22.60;66.10
40852;DHT22;26574;52.486;13.348;2022-09-28T06:43:02;22.60;65.70
40852;DHT22;26574;52.486;13.348;2022-09-28T06:45:50;22.60;65.90
40852;DHT22;26574;52.486;13.348;2022-09-28T06:48:42;22.70;66.00
40852;DHT22;26574;52.486;13.348;2022-09-28T06:51:12;22.60;65.90
40852;DHT22;26574;52.486;13.348;2022-09-28T06:53:59;22.70;66.00
40852;DHT22;26574;52.486;13.348;2022-09-28T06:56:43;22.70;65.70
40852;DHT22;26574;52.486;13.348;2022-09-28T06:59:09;22.70;65.70
40852;DHT22;26574;52.486;13.348;2022-09-28T07:01:36;22.70;65.80
40852;DHT22;26574;52.486;13.348;2022-09-28T07:04:17;22.70;66.00
40852;DHT22;26574;52.486;13.348;2022-09-28T07:07:03;22.70;65.80
40852;DHT22;26574;52.486;13.348;2022-09-28T07:09:29;22.70;66.40
40852;DHT22;26574;52.486;13.348;2022-09-28T07:12:13;22.70;65.90
40852;DHT22;26574;52.486;13.348;2022-09-28T07:15:05;22.70;65.40
40852;DHT22;26574;52.486;13.348;2022-09-28T07:17:32;22.70;61.10
40852;DHT22;26574;52.486;13.348;2022-09-28T07:20:00;22.50;59.60
40852;DHT22;26574;52.486;13.348;2022-09-28T07:22:28;22.30;55.50
40852;DHT22;26574;52.486;13.348;2022-09-28T07:24:54;22.00;53.00
40852;DHT22;26574;52.486;13.348;2022-09-28T07:27:58;21.90;53.00
40852;DHT22;26574;52.486;13.348;2022-09-28T07:30:34;21.70;52.90
40852;DHT22;26574;52.486;13.348;2022-09-28T07:33:07;21.60;51.10
40852;DHT22;26574;52.486;13.348;2022-09-28T07:35:56;21.50;50.70
40852;DHT22;26574;52.486;13.348;2022-09-28T07:38:26;21.40;50.40
40852;DHT22;26574;52.486;13.348;2022-09-28T07:40:54;21.50;51.50
40852;DHT22;26574;52.486;13.348;2022-09-28T07:43:44;21.30;50.50
40852;DHT22;26574;52.486;13.348;2022-09-28T07:46:10;21.60;52.10
40852;DHT22;26574;52.486;13.348;2022-09-28T07:48:59;21.80;55.40
40852;DHT22;26574;52.486;13.348;2022-09-28T07:51:43;22.00;55.10
40852;DHT22;26574;52.486;13.348;2022-09-28T07:54:27;22.10;55.60
40852;DHT22;26574;52.486;13.348;2022-09-28T07:56:53;22.20;54.50
40852;DHT22;26574;52.486;13.348;2022-09-28T07:59:36;22.30;55.40
40852;DHT22;26574;52.486;13.348;2022-09-28T08:02:20;22.30;56.20
40852;DHT22;26574;52.486;13.348;2022-09-28T08:04:46;22.40;55.90
40852;DHT22;26574;52.486;13.348;2022-09-28T08:07:12;22.40;56.20
40852;DHT22;26574;52.486;13.348;2022-09-28T08:09:40;22.50;56.60
40852;DHT22;26574;52.486;13.348;2022-09-28T08:12:15;22.40;56.80
40852;DHT22;26574;52.486;13.348;2022-09-28T08:14:58;22.50;57.70
40852;DHT22;26574;52.486;13.348;2022-09-28T08:17:27;22.50;57.50
40852;DHT22;26574;52.486;13.348;2022-09-28T08:19:55;22.50;58.00
40852;DHT22;26574;52.486;13.348;2022-09-28T08:22:40;22.50;58.20
40852;DHT22;26574;52.486;13.348;2022-09-28T08:25:07;22.50;58.10
40852;DHT22;26574;52.486;13.348;2022-09-28T08:27:33;22.60;58.40
40852;DHT22;26574;52.486;13.348;2022-09-28T08:29:58;22.60;57.90
40852;DHT22;26574;52.486;13.348;2022-09-28T08:32:38;22.60;57.80
40852;DHT22;26574;52.486;13.348;2022-09-28T08:35:42;22.80;58.40
40852;DHT22;26574;52.486;13.348;2022-09-28T08:38:17;22.70;59.20
40852;DHT22;26574;52.486;13.348;2022-09-28T08:46:44;22.70;59.40
40852;DHT22;26574;52.486;13.348;2022-09-28T08:49:38;22.80;59.40
40852;DHT22;26574;52.486;13.348;2022-09-28T08:52:29;22.80;60.10
40852;DHT22;26574;52.486;13.348;2022-09-28T08:55:31;22.80;61.50
40852;DHT22;26574;52.486;13.348;2022-09-28T08:58:09;22.80;61.60
40852;DHT22;26574;52.486;13.348;2022-09-28T09:00:45;22.70;59.50
40852;DHT22;26574;52.486;13.348;2022-09-28T09:03:13;22.60;59.50
40852;DHT22;26574;52.486;13.348;2022-09-28T09:10:48;22.70;59.90
40852;DHT22;26574;52.486;13.348;2022-09-28T09:13:29;22.70;59.40
40852;DHT22;26574;52.486;13.348;2022-09-28T09:16:06;22.70;60.50
40852;DHT22;26574;52.486;13.348;2022-09-28T09:19:03;22.70;59.10
40852;DHT22;26574;52.486;13.348;2022-09-28T09:21:57;22.70;59.90
40852;DHT22;26574;52.486;13.348;2022-09-28T09:37:39;22.60;60.00
40852;DHT22;26574;52.486;13.348;2022-09-28T09:49:14;22.60;60.20
40852;DHT22;26574;52.486;13.348;2022-09-28T09:57:04;22.70;59.40
40852;DHT22;26574;52.486;13.348;2022-09-28T09:59:58;22.60;59.80
40852;DHT22;26574;52.486;13.348;2022-09-28T10:02:39;22.70;61.20
40852;DHT22;26574;52.486;13.348;2022-09-28T10:05:20;22.70;59.10
40852;DHT22;26574;52.486;13.348;2022-09-28T10:07:55;22.60;59.50
40852;DHT22;26574;52.486;13.348;2022-09-28T10:10:29;22.60;57.40
40852;DHT22;26574;52.486;13.348;2022-09-28T10:13:07;22.50;56.30
40852;DHT22;26574;52.486;13.348;2022-09-28T10:15:33;22.40;58.50
40852;DHT22;26574;52.486;13.348;2022-09-28T10:18:11;22.50;59.60
40852;DHT22;26574;52.486;13.348;2022-09-28T10:21:11;22.50;59.30
40852;DHT22;26574;52.486;13.348;2022-09-28T10:23:54;22.40;58.00
40852;DHT22;26574;52.486;13.348;2022-09-28T10:26:24;22.40;58.40
40852;DHT22;26574;52.486;13.348;2022-09-28T10:28:59;22.40;57.40
40852;DHT22;26574;52.486;13.348;2022-09-28T10:33:58;22.40;54.40
40852;DHT22;26574;52.486;13.348;2022-09-28T10:36:24;22.40;55.30
40852;DHT22;26574;52.486;13.348;2022-09-28T10:38:50;22.40;56.30
40852;DHT22;26574;52.486;13.348;2022-09-28T10:41:25;22.40;56.90
40852;DHT22;26574;52.486;13.348;2022-09-28T10:43:55;22.40;55.30
40852;DHT22;26574;52.486;13.348;2022-09-28T10:46:35;22.30;54.30
40852;DHT22;26574;52.486;13.348;2022-09-28T10:49:10;22.20;54.00
40852;DHT22;26574;52.486;13.348;2022-09-28T10:51:39;22.20;53.20
40852;DHT22;26574;52.486;13.348;2022-09-28T10:54:04;22.10;53.20
40852;DHT22;26574;52.486;13.348;2022-09-28T10:56:48;22.10;52.80
40852;DHT22;26574;52.486;13.348;2022-09-28T11:01:51;22.10;54.00
40852;DHT22;26574;52.486;13.348;2022-09-28T11:04:18;22.10;53.20
40852;DHT22;26574;52.486;13.348;2022-09-28T11:06:45;22.10;52.50
40852;DHT22;26574;52.486;13.348;2022-09-28T11:11:53;22.10;53.50
40852;DHT22;26574;52.486;13.348;2022-09-28T11:14:38;22.10;53.60
40852;DHT22;26574;52.486;13.348;2022-09-28T11:17:24;22.20;56.30
40852;DHT22;26574;52.486;13.348;2022-09-28T11:19:51;22.20;60.00
40852;DHT22;26574;52.486;13.348;2022-09-28T11:22:28;22.20;59.30
40852;DHT22;26574;52.486;13.348;2022-09-28T11:30:22;22.10;64.70
40852;DHT22;26574;52.486;13.348;2022-09-28T11:33:27;22.10;64.30
40852;DHT22;26574;52.486;13.348;2022-09-28T11:36:32;22.10;64.40
40852;DHT22;26574;52.486;13.348;2022-09-28T11:39:10;22.10;61.50
40852;DHT22;26574;52.486;13.348;2022-09-28T11:44:34;22.00;65.10
40852;DHT22;26574;52.486;13.348;2022-09-28T11:47:13;22.00;65.60
40852;DHT22;26574;52.486;13.348;2022-09-28T11:49:42;22.00;65.60
40852;DHT22;26574;52.486;13.348;2022-09-28T11:52:12;21.90;65.40
40852;DHT22;26574;52.486;13.348;2022-09-28T11:54:41;21.90;65.90
40852;DHT22;26574;52.486;13.348;2022-09-28T11:57:13;21.90;64.90
40852;DHT22;26574;52.486;13.348;2022-09-28T11:59:46;21.90;65.70
40852;DHT22;26574;52.486;13.348;2022-09-28T12:08:23;21.90;66.00
40852;DHT22;26574;52.486;13.348;2022-09-28T12:14:25;21.90;66.30
40852;DHT22;26574;52.486;13.348;2022-09-28T12:16:55;21.90;66.10
40852;DHT22;26574;52.486;13.348;2022-09-28T12:19:42;22.00;66.40
40852;DHT22;26574;52.486;13.348;2022-09-28T12:22:12;21.90;66.50
40852;DHT22;26574;52.486;13.348;2022-09-28T12:24:44;21.90;66.60
40852;DHT22;26574;52.486;13.348;2022-09-28T12:27:23;21.90;66.80
40852;DHT22;26574;52.486;13.348;2022-09-28T12:29:56;21.90;66.70
40852;DHT22;26574;52.486;13.348;2022-09-28T12:32:27;21.90;66.70
40852;DHT22;26574;52.486;13.348;2022-09-28T12:34:53;21.90;66.30
40852;DHT22;26574;52.486;13.348;2022-09-28T12:40:01;21.90;66.10
40852;DHT22;26574;52.486;13.348;2022-09-28T12:52:50;22.00;66.90
40852;DHT22;26574;52.486;13.348;2022-09-28T12:55:25;22.00;66.80
40852;DHT22;26574;52.486;13.348;2022-09-28T12:58:05;22.00;66.50
40852;DHT22;26574;52.486;13.348;2022-09-28T13:00:36;22.00;66.70
40852;DHT22;26574;52.486;13.348;2022-09-28T13:16:01;22.00;67.40
40852;DHT22;26574;52.486;13.348;2022-09-28T13:18:39;22.10;65.20
40852;DHT22;26574;52.486;13.348;2022-09-28T13:24:02;22.00;66.80
40852;DHT22;26574;52.486;13.348;2022-09-28T13:26:30;22.00;66.50
40852;DHT22;26574;52.486;13.348;2022-09-28T13:28:59;22.00;65.70
40852;DHT22;26574;52.486;13.348;2022-09-28T13:31:27;22.00;66.30
40852;DHT22;26574;52.486;13.348;2022-09-28T13:33:56;22.00;66.80
40852;DHT22;26574;52.486;13.348;2022-09-28T13:38:53;22.00;63.90
40852;DHT22;26574;52.486;13.348;2022-09-28T13:41:26;22.00;65.90
40852;DHT22;26574;52.486;13.348;2022-09-28T13:46:22;22.00;63.90
40852;DHT22;26574;52.486;13.348;2022-09-28T13:48:58;22.00;64.40
40852;DHT22;26574;52.486;13.348;2022-09-28T13:51:30;22.00;64.00
40852;DHT22;26574;52.486;13.348;2022-09-28T13:56:47;22.00;64.00
40852;DHT22;26574;52.486;13.348;2022-09-28T13:59:53;22.00;65.00
40852;DHT22;26574;52.486;13.348;2022-09-28T14:07:23;22.00;63.20
40852;DHT22;26574;52.486;13.348;2022-09-28T14:14:59;22.00;64.10
40852;DHT22;26574;52.486;13.348;2022-09-28T14:19:52;22.00;63.20
40852;DHT22;26574;52.486;13.348;2022-09-28T14:22:28;22.00;63.80
40852;DHT22;26574;52.486;13.348;2022-09-28T14:25:12;22.00;64.40
40852;DHT22;26574;52.486;13.348;2022-09-28T14:32:35;22.10;67.10
40852;DHT22;26574;52.486;13.348;2022-09-28T14:35:02;22.10;67.50
40852;DHT22;26574;52.486;13.348;2022-09-28T14:37:30;22.10;68.30
40852;DHT22;26574;52.486;13.348;2022-09-28T14:40:28;22.10;68.80
40852;DHT22;26574;52.486;13.348;2022-09-28T14:43:21;22.10;68.70
40852;DHT22;26574;52.486;13.348;2022-09-28T14:45:49;22.10;68.70
40852;DHT22;26574;52.486;13.348;2022-09-28T14:48:39;22.10;67.20
40852;DHT22;26574;52.486;13.348;2022-09-28T14:52:08;22.20;67.50
40852;DHT22;26574;52.486;13.348;2022-09-28T14:54:12;22.10;68.20
40852;DHT22;26574;52.486;13.348;2022-09-28T14:56:43;22.20;68.30
40852;DHT22;26574;52.486;13.348;2022-09-28T14:59:16;22.10;68.20
40852;DHT22;26574;52.486;13.348;2022-09-28T15:01:43;22.20;68.40
40852;DHT22;26574;52.486;13.348;2022-09-28T15:04:12;22.20;67.90
40852;DHT22;26574;52.486;13.348;2022-09-28T15:06:48;22.10;66.20
40852;DHT22;26574;52.486;13.348;2022-09-28T15:09:30;22.10;65.60
40852;DHT22;26574;52.486;13.348;2022-09-28T15:11:59;22.10;63.10
40852;DHT22;26574;52.486;13.348;2022-09-28T15:14:26;22.10;63.00
40852;DHT22;26574;52.486;13.348;2022-09-28T15:16:53;22.10;64.60
40852;DHT22;26574;52.486;13.348;2022-09-28T15:19:28;22.10;63.90
40852;DHT22;26574;52.486;13.348;2022-09-28T15:21:56;22.10;62.50
40852;DHT22;26574;52.486;13.348;2022-09-28T15:24:22;22.10;63.70
40852;DHT22;26574;52.486;13.348;2022-09-28T15:26:48;22.20;63.30
40852;DHT22;26574;52.486;13.348;2022-09-28T15:29:17;22.40;64.10
40852;DHT22;26574;52.486;13.348;2022-09-28T15:31:44;22.50;61.60
40852;DHT22;26574;52.486;13.348;2022-09-28T15:34:25;22.50;61.50
40852;DHT22;26574;52.486;13.348;2022-09-28T15:37:10;22.50;60.70
40852;DHT22;26574;52.486;13.348;2022-09-28T15:39:36;22.60;62.80
40852;DHT22;26574;52.486;13.348;2022-09-28T15:42:02;22.60;63.00
40852;DHT22;26574;52.486;13.348;2022-09-28T15:44:38;22.60;63.40
40852;DHT22;26574;52.486;13.348;2022-09-28T15:47:09;22.60;62.20
40852;DHT22;26574;52.486;13.348;2022-09-28T15:49:39;22.60;61.70
40852;DHT22;26574;52.486;13.348;2022-09-28T15:52:06;22.60;59.60
40852;DHT22;26574;52.486;13.348;2022-09-28T15:54:43;22.50;61.40
40852;DHT22;26574;52.486;13.348;2022-09-28T15:57:27;22.40;61.40
40852;DHT22;26574;52.486;13.348;2022-09-28T15:59:53;22.40;61.90
40852;DHT22;26574;52.486;13.348;2022-09-28T16:02:21;22.30;61.30
40852;DHT22;26574;52.486;13.348;2022-09-28T16:04:48;22.30;60.70
40852;DHT22;26574;52.486;13.348;2022-09-28T16:07:19;22.30;60.90
40852;DHT22;26574;52.486;13.348;2022-09-28T16:12:17;22.20;60.80
40852;DHT22;26574;52.486;13.348;2022-09-28T16:14:46;22.20;61.10
40852;DHT22;26574;52.486;13.348;2022-09-28T16:17:18;22.20;62.30
40852;DHT22;26574;52.486;13.348;2022-09-28T16:19:53;22.20;62.30
40852;DHT22;26574;52.486;13.348;2022-09-28T16:22:19;22.30;62.90
40852;DHT22;26574;52.486;13.348;2022-09-28T16:24:53;22.30;62.90
40852;DHT22;26574;52.486;13.348;2022-09-28T16:27:27;22.20;63.10
40852;DHT22;26574;52.486;13.348;2022-09-28T16:35:15;22.30;63.30
40852;DHT22;26574;52.486;13.348;2022-09-28T16:37:43;22.30;63.70
40852;DHT22;26574;52.486;13.348;2022-09-28T16:40:10;22.30;63.60
40852;DHT22;26574;52.486;13.348;2022-09-28T16:42:39;22.30;63.20
40852;DHT22;26574;52.486;13.348;2022-09-28T16:45:08;22.30;63.40
40852;DHT22;26574;52.486;13.348;2022-09-28T16:47:38;22.30;63.40
40852;DHT22;26574;52.486;13.348;2022-09-28T16:50:05;22.30;63.30
40852;DHT22;26574;52.486;13.348;2022-09-28T16:52:31;22.30;63.30
40852;DHT22;26574;52.486;13.348;2022-09-28T16:55:15;22.30;63.60
40852;DHT22;26574;52.486;13.348;2022-09-28T16:57:41;22.30;64.60
40852;DHT22;26574;52.486;13.348;2022-09-28T17:00:09;22.30;65.20
40852;DHT22;26574;52.486;13.348;2022-09-28T17:02:38;22.30;65.90
40852;DHT22;26574;52.486;13.348;2022-09-28T17:05:04;22.30;65.80
40852;DHT22;26574;52.486;13.348;2022-09-28T17:07:31;22.30;66.40
40852;DHT22;26574;52.486;13.348;2022-09-28T17:09:57;22.30;67.10
40852;DHT22;26574;52.486;13.348;2022-09-28T17:12:23;22.40;66.30
40852;DHT22;26574;52.486;13.348;2022-09-28T17:14:49;22.40;66.30
40852;DHT22;26574;52.486;13.348;2022-09-28T17:17:14;22.40;66.60
40852;DHT22;26574;52.486;13.348;2022-09-28T17:19:40;22.40;66.00
40852;DHT22;26574;52.486;13.348;2022-09-28T17:22:07;22.40;66.20
40852;DHT22;26574;52.486;13.348;2022-09-28T17:24:33;22.40;65.80
40852;DHT22;26574;52.486;13.348;2022-09-28T17:26:58;22.40;66.10
40852;DHT22;26574;52.486;13.348;2022-09-28T17:29:25;22.40;65.80
40852;DHT22;26574;52.486;13.348;2022-09-28T17:31:52;22.40;65.80
40852;DHT22;26574;52.486;13.348;2022-09-28T17:34:18;22.40;66.00
40852;DHT22;26574;52.486;13.348;2022-09-28T17:36:45;22.40;66.00
40852;DHT22;26574;52.486;13.348;2022-09-28T17:39:12;22.40;66.00
40852;DHT22;26574;52.486;13.348;2022-09-28T17:41:37;22.40;65.80
40852;DHT22;26574;52.486;13.348;2022-09-28T17:44:04;22.40;66.00
40852;DHT22;26574;52.486;13.348;2022-09-28T17:46:31;22.40;65.60
40852;DHT22;26574;52.486;13.348;2022-09-28T17:48:58;22.40;65.90
40852;DHT22;26574;52.486;13.348;2022-09-28T17:51:27;22.40;65.70
40852;DHT22;26574;52.486;13.348;2022-09-28T17:53:55;22.30;65.70
40852;DHT22;26574;52.486;13.348;2022-09-28T17:56:21;22.40;65.80
40852;DHT22;26574;52.486;13.348;2022-09-28T17:58:47;22.40;66.30
40852;DHT22;26574;52.486;13.348;2022-09-28T18:01:13;22.30;65.20
40852;DHT22;26574;52.486;13.348;2022-09-28T18:03:39;22.40;65.50
40852;DHT22;26574;52.486;13.348;2022-09-28T18:06:05;22.30;65.20
40852;DHT22;26574;52.486;13.348;2022-09-28T18:08:31;22.40;65.30
40852;DHT22;26574;52.486;13.348;2022-09-28T18:10:57;22.30;66.00
40852;DHT22;26574;52.486;13.348;2022-09-28T18:13:23;22.30;65.20
40852;DHT22;26574;52.486;13.348;2022-09-28T18:15:52;22.40;65.40
40852;DHT22;26574;52.486;13.348;2022-09-28T18:18:18;22.30;66.10